Portada
METAR-TAF:

METAR-TAF

Aeroports :

Al-Hassà, Aràbia Saudita

latitud: 25-18N, longitud: 049-29E, altitud: 179 m

Observació

L'informe es va fer fa 1 hora i 9 minuts, a les 07:00 UTC
Vent 12 kt del Nord/Nord-Oest
Temperatura 37°C
Humitat 12%
Pressió 1008 hPa
Visibilitat 10 km o més
sense núvols per sota de 1500 mi sense presència de cumulonimbus.

METAR: OEAH 210700Z 33012KT CAVOK 37/03 Q1008 NOSIG

Hora: 11:09 (08:09 UTC)

Pronòstic

L'informe es va fer fa 12 hores i 9 minuts, a les 20:00 UTC
Pronòstic vàlid del 21 a les 00 UTC al 22 a les 06 UTC
Vent 14 kt del Nord/Nord-Oest
Visibilitat 10 km o més
sense núvols per sota de 1500 mi sense presència de cumulonimbus.
Evolucionant progressivament
l' 21 a les 18 UTC al 21 a les 20 UTC
Vent 10 kt del Oest/Nord-Oest

TAF: OEAH 202000Z 2100/2206 33014KT CAVOK BECMG 2118/2120 29010KT

Observacions i pronòstics meteorològics de més de 4000 aeroports (METAR i TAF).

Les estacions disponibles són els punts grocs i vermells al mapa.

Posi el ratolí al punt desitjat per veure el nom de l'estació.

Feu clic per veure les observacions i els pronòstics meteorològics.

Per canviar el mapa: feu clic els botons verds amb una creu de color negre per apropar; al botó verd amb un guió per allunyar la imatge; o en les fletxes verdes per a mapes adjacents.


METAR-TAF: